Observation data for Northfield on 07/04/2020      Previous  Date  Next       Current Mesonet Observations  Soil Data  Daily Summary Page  Observations in Plain Language
KNOR 040500Z 16008KT 29/13 A30 RMK A01 T02850126  RH  039%=      5-min Rain = 0
KNOR 040505Z 16008KT 28/13 A3001 RMK A01 T02840126  RH  039%=      5-min Rain = 0
KNOR 040510Z 15008KT 28/13 A3001 RMK A01 T02830126  RH  040%=      5-min Rain = 0
KNOR 040515Z 15007KT 28/13 A3001 RMK A01 T02830126  RH  039%=      5-min Rain = 0
KNOR 040520Z 15007KT 28/13 A3001 RMK A01 T02820127  RH  040%=      5-min Rain = 0
KNOR 040525Z 15008KT 28/13 A3001 RMK A01 T02810128  RH  040%=      5-min Rain = 0
KNOR 040530Z 16008KT 28/13 A30 RMK A01 T02810128  RH  040%=      5-min Rain = 0
KNOR 040535Z 16008KT 28/13 A30 RMK A01 T02810128  RH  040%=      5-min Rain = 0
KNOR 040540Z 16008KT 28/13 A30 RMK A01 T02810129  RH  041%=      5-min Rain = 0
KNOR 040545Z 16008KT 28/13 A30 RMK A01 T02790130  RH  041%=      5-min Rain = 0
KNOR 040550Z 16008KT 28/13 A30 RMK A01 T02780131  RH  042%=      5-min Rain = 0
KNOR 040555Z 16008KT 28/13 A30 RMK A01 T02780132  RH  042%=      5-min Rain = 0
KNOR 040600Z 16009KT 28/13 A30 RMK A01 T02780133  RH  042%=      5-min Rain = 0
KNOR 040605Z 16009KT 28/13 A30 RMK A01 T02780133  RH  043%=      5-min Rain = 0
KNOR 040610Z 16009KT 28/13 A30 RMK A01 T02770134  RH  043%=      5-min Rain = 0
KNOR 040615Z 16008KT 28/13 A30 RMK A01 T02760134  RH  043%=      5-min Rain = 0
KNOR 040620Z 16008KT 28/14 A30 RMK A01 T02760135  RH  044%=      5-min Rain = 0
KNOR 040625Z 16008KT 28/14 A30 RMK A01 T02760136  RH  044%=      5-min Rain = 0
KNOR 040630Z 17008KT 28/14 A30 RMK A01 T02750137  RH  044%=      5-min Rain = 0
KNOR 040635Z 17009KT 28/14 A30 RMK A01 T02750140  RH  045%=      5-min Rain = 0
KNOR 040640Z 17009KT 28/14 A2999 RMK A01 T02750142  RH  046%=      5-min Rain = 0
KNOR 040645Z 17009KT 27/14 A2999 RMK A01 T02740143  RH  047%=      5-min Rain = 0
KNOR 040650Z 17009KT 27/15 A2999 RMK A01 T02740145  RH  047%=      5-min Rain = 0
KNOR 040655Z 17008KT 27/15 A2999 RMK A01 T02740147  RH  048%=      5-min Rain = 0
KNOR 040700Z 17008KT 27/15 A2999 RMK A01 T02730149  RH  049%=      5-min Rain = 0
KNOR 040705Z 17008KT 27/15 A2999 RMK A01 T02730151  RH  049%=      5-min Rain = 0
KNOR 040710Z 18006KT 27/15 A2999 RMK A01 T02700152  RH  051%=      5-min Rain = 0
KNOR 040715Z 20005KT 27/15 A2999 RMK A01 T02670152  RH  051%=      5-min Rain = 0
KNOR 040720Z 21003KT 26/15 A2999 RMK A01 T02610150  RH  053%=      5-min Rain = 0
KNOR 040725Z 20004KT 26/15 A2999 RMK A01 T02600150  RH  053%=      5-min Rain = 0
KNOR 040730Z 19004KT 26/15 A2999 RMK A01 T02590149  RH  053%=      5-min Rain = 0
KNOR 040735Z 18003KT 26/15 A2999 RMK A01 T02570149  RH  053%=      5-min Rain = 0
KNOR 040740Z 17003KT 26/15 A2999 RMK A01 T02580150  RH  053%=      5-min Rain = 0
KNOR 040745Z 17002KT 26/15 A2999 RMK A01 T02590150  RH  054%=      5-min Rain = 0
KNOR 040750Z 16001KT 26/15 A2999 RMK A01 T02570151  RH  054%=      5-min Rain = 0
KNOR 040755Z 18001KT 26/15 A2999 RMK A01 T02570151  RH  054%=      5-min Rain = 0
KNOR 040800Z 23001KT 26/15 A2999 RMK A01 T02560151  RH  055%=      5-min Rain = 0
KNOR 040805Z 18003KT 26/15 A2999 RMK A01 T02560151  RH  055%=      5-min Rain = 0
KNOR 040810Z 16003KT 26/15 A2999 RMK A01 T02570150  RH  054%=      5-min Rain = 0
KNOR 040815Z 17003KT 26/15 A2999 RMK A01 T02570150  RH  054%=      5-min Rain = 0
KNOR 040820Z 19003KT 26/15 A2999 RMK A01 T02560151  RH  054%=      5-min Rain = 0
KNOR 040825Z 20003KT 25/15 A2999 RMK A01 T02530151  RH  056%=      5-min Rain = 0
KNOR 040830Z 22003KT 25/15 A2998 RMK A01 T02510152  RH  057%=      5-min Rain = 0
KNOR 040835Z 25002KT 25/15 A2999 RMK A01 T02490152  RH  057%=      5-min Rain = 0
KNOR 040840Z 21002KT 25/15 A2999 RMK A01 T02490151  RH  057%=      5-min Rain = 0
KNOR 040845Z 20002KT 25/15 A2999 RMK A01 T02490151  RH  057%=      5-min Rain = 0
KNOR 040850Z 18002KT 25/15 A2999 RMK A01 T02510152  RH  057%=      5-min Rain = 0
KNOR 040855Z 19003KT 25/15 A2999 RMK A01 T02510153  RH  057%=      5-min Rain = 0
KNOR 040900Z 20003KT 25/15 A2999 RMK A01 T02510153  RH  057%=      5-min Rain = 0
KNOR 040905Z 20002KT 25/15 A2999 RMK A01 T02500153  RH  057%=      5-min Rain = 0
KNOR 040910Z 20002KT 25/15 A2999 RMK A01 T02510154  RH  057%=      5-min Rain = 0
KNOR 040915Z 20003KT 25/16 A30 RMK A01 T02510155  RH  058%=      5-min Rain = 0
KNOR 040920Z 21003KT 25/16 A30 RMK A01 T02490155  RH  058%=      5-min Rain = 0
KNOR 040925Z 23002KT 25/16 A30 RMK A01 T02470155  RH  059%=      5-min Rain = 0
KNOR 040930Z 27002KT 25/16 A30 RMK A01 T02460155  RH  060%=      5-min Rain = 0
KNOR 040935Z 32003KT 24/16 A30 RMK A01 T02440155  RH  060%=      5-min Rain = 0
KNOR 040940Z 34006KT 24/16 A3001 RMK A01 T02370155  RH  063%=      5-min Rain = 0
KNOR 040945Z 33007KT 23/15 A3001 RMK A01 T02300149  RH  063%=      5-min Rain = 0
KNOR 040950Z 33004KT 23/15 A3001 RMK A01 T02270146  RH  063%=      5-min Rain = 0
KNOR 040955Z 34002KT 23/15 A3001 RMK A01 T02280146  RH  063%=      5-min Rain = 0
KNOR 041000Z 01004KT 23/15 A3001 RMK A01 T02290147  RH  062%=      5-min Rain = 0
KNOR 041005Z 01006KT 23/15 A3001 RMK A01 T02290148  RH  063%=      5-min Rain = 0
KNOR 041010Z 36005KT 23/15 A3001 RMK A01 T02300150  RH  064%=      5-min Rain = 0
KNOR 041015Z 01004KT 23/15 A3001 RMK A01 T02320151  RH  063%=      5-min Rain = 0
KNOR 041020Z 01004KT 24/15 A3001 RMK A01 T02350152  RH  062%=      5-min Rain = 0
KNOR 041025Z 36005KT 24/15 A3001 RMK A01 T02380153  RH  062%=      5-min Rain = 0
KNOR 041030Z 35005KT 24/15 A3001 RMK A01 T02390154  RH  062%=      5-min Rain = 0
KNOR 041035Z 33003KT 24/16 A30 RMK A01 T02400155  RH  062%=      5-min Rain = 0
KNOR 041040Z 29002KT 24/15 A30 RMK A01 T02370154  RH  063%=      5-min Rain = 0
KNOR 041045Z 28003KT 23/15 A30 RMK A01 T02250153  RH  066%=      5-min Rain = 0
KNOR 041050Z 33004KT 22/15 A3001 RMK A01 T02200154  RH  069%=      5-min Rain = 0
KNOR 041055Z 35007KT 22/15 A3001 RMK A01 T02210154  RH  069%=      5-min Rain = 0
KNOR 041100Z 34005KT 23/16 A30 RMK A01 T02250155  RH  068%=      5-min Rain = 0
KNOR 041105Z 36003KT 23/15 A30 RMK A01 T02280154  RH  066%=      5-min Rain = 0
KNOR 041110Z 01005KT 23/15 A30 RMK A01 T02320154  RH  065%=      5-min Rain = 0
KNOR 041115Z 36005KT 23/16 A30 RMK A01 T02310155  RH  065%=      5-min Rain = 0
KNOR 041120Z 34004KT 23/15 A30 RMK A01 T02310154  RH  065%=      5-min Rain = 0
KNOR 041125Z 34003KT 23/15 A30 RMK A01 T02310153  RH  065%=      5-min Rain = 0
KNOR 041130Z 00004KT 23/15 A30 RMK A01 T02340153  RH  063%=      5-min Rain = 0
KNOR 041135Z 02003KT 24/15 A30 RMK A01 T02360154  RH  063%=      5-min Rain = 0
KNOR 041140Z 01002KT 23/15 A30 RMK A01 T02340154  RH  064%=      5-min Rain = 0
KNOR 041145Z 03002KT 23/15 A30 RMK A01 T02320153  RH  064%=      5-min Rain = 0
KNOR 041150Z 01002KT 24/15 A30 RMK A01 T02350154  RH  063%=      5-min Rain = 0
KNOR 041155Z 28003KT 23/15 A30 RMK A01 T02290153  RH  065%=      5-min Rain = 0
KNOR 041200Z 26004KT 21/15 A30 RMK A01 T02130152  RH  071%=      5-min Rain = 0
KNOR 041205Z 26003KT 21/15 A30 RMK A01 T02130153  RH  072%=      5-min Rain = 0
KNOR 041210Z 25004KT 22/15 A30 RMK A01 T02150154  RH  071%=      5-min Rain = 0
KNOR 041215Z 24005KT 21/15 A30 RMK A01 T02130154  RH  072%=      5-min Rain = 0
KNOR 041220Z 23004KT 22/16 A30 RMK A01 T02150155  RH  072%=      5-min Rain = 0
KNOR 041225Z 23004KT 22/16 A30 RMK A01 T02160155  RH  071%=      5-min Rain = 0
KNOR 041230Z 24004KT 22/16 A30 RMK A01 T02170157  RH  072%=      5-min Rain = 0
KNOR 041235Z 24004KT 22/16 A30 RMK A01 T02200157  RH  071%=      5-min Rain = 0
KNOR 041240Z 24004KT 22/16 A30 RMK A01 T02230158  RH  070%=      5-min Rain = 0
KNOR 041245Z 25004KT 23/16 A30 RMK A01 T02280159  RH  068%=      5-min Rain = 0
KNOR 041250Z 25004KT 23/16 A30 RMK A01 T02340160  RH  066%=      5-min Rain = 0
KNOR 041255Z 25004KT 24/16 A30 RMK A01 T02380160  RH  065%=      5-min Rain = 0
KNOR 041300Z 25004KT 24/16 A30 RMK A01 T02420160  RH  063%=      5-min Rain = 0
KNOR 041305Z 25004KT 24/16 A30 RMK A01 T02440160  RH  062%=      5-min Rain = 0
KNOR 041310Z 25003KT 25/16 A30 RMK A01 T02490160  RH  061%=      5-min Rain = 0
KNOR 041315Z 25003KT 25/16 A30 RMK A01 T02530161  RH  059%=      5-min Rain = 0
KNOR 041320Z 27002KT 26/16 A3001 RMK A01 T02560161  RH  059%=      5-min Rain = 0
KNOR 041325Z 29003KT 26/16 A3001 RMK A01 T02630161  RH  056%=      5-min Rain = 0
KNOR 041330Z 31003KT 27/16 A3001 RMK A01 T02660160  RH  055%=      5-min Rain = 0
KNOR 041335Z 32004KT 27/16 A3001 RMK A01 T02690161  RH  054%=      5-min Rain = 0
KNOR 041340Z 32004KT 27/16 A3001 RMK A01 T02720160  RH  053%=      5-min Rain = 0
KNOR 041345Z 32004KT 27/16 A3001 RMK A01 T02740161  RH  053%=      5-min Rain = 0
KNOR 041350Z 32004KT 28/16 A3001 RMK A01 T02760160  RH  051%=      5-min Rain = 0
KNOR 041355Z 33004KT 28/16 A3001 RMK A01 T02780160  RH  051%=      5-min Rain = 0
KNOR 041400Z 35006KT 28/16 A3001 RMK A01 T02800161  RH  051%=      5-min Rain = 0
KNOR 041405Z 01007KT 28/16 A3001 RMK A01 T02840162  RH  050%=      5-min Rain = 0
KNOR 041410Z 02005KT 29/16 A3001 RMK A01 T02910163  RH  048%=      5-min Rain = 0
KNOR 041415Z 01009G14KT 30/16 A3001 RMK A01 T02950161  RH  047%=      5-min Rain = 0
KNOR 041420Z 01008KT 29/16 A3001 RMK A01 T02940159  RH  046%=      5-min Rain = 0
KNOR 041425Z 02010KT 30/16 A3001 RMK A01 T02970156  RH  044%=      5-min Rain = 0
KNOR 041430Z 02009KT 29/15 A3001 RMK A01 T02940152  RH  044%=      5-min Rain = 0
KNOR 041435Z 03009KT 30/15 A3001 RMK A01 T02950151  RH  044%=      5-min Rain = 0
KNOR 041440Z 03007KT 30/15 A3001 RMK A01 T02980150  RH  042%=      5-min Rain = 0
KNOR 041445Z 02010KT 30/15 A3001 RMK A01 T03010148  RH  041%=      5-min Rain = 0
KNOR 041450Z 02007KT 30/15 A3001 RMK A01 T03020147  RH  041%=      5-min Rain = 0
KNOR 041455Z 02006KT 30/15 A3001 RMK A01 T03040147  RH  040%=      5-min Rain = 0
KNOR 041500Z 04006KT 31/14 A3001 RMK A01 T03050144  RH  039%=      5-min Rain = 0
KNOR 041505Z 02006KT 31/14 A30 RMK A01 T03070140  RH  038%=      5-min Rain = 0
KNOR 041510Z 01007KT 31/14 A30 RMK A01 T03110139  RH  037%=      5-min Rain = 0
KNOR 041515Z 01006KT 31/14 A30 RMK A01 T03110138  RH  036%=      5-min Rain = 0
KNOR 041520Z 02007KT 31/14 A30 RMK A01 T03140138  RH  036%=      5-min Rain = 0
KNOR 041525Z 03007KT 31/14 A30 RMK A01 T03140137  RH  035%=      5-min Rain = 0
KNOR 041530Z 01007KT 32/14 A30 RMK A01 T03170138  RH  035%=      5-min Rain = 0
KNOR 041535Z 00007KT 32/14 A30 RMK A01 T03180138  RH  035%=      5-min Rain = 0
KNOR 041540Z 03004KT 32/14 A30 RMK A01 T03230140  RH  034%=      5-min Rain = 0
KNOR 041545Z 03005KT 32/14 A30 RMK A01 T03240139  RH  034%=      5-min Rain = 0
KNOR 041550Z 03006KT 32/14 A30 RMK A01 T03240139  RH  034%=      5-min Rain = 0
KNOR 041555Z 07005KT 33/14 A30 RMK A01 T03270140  RH  034%=      5-min Rain = 0
KNOR 041600Z 05007KT 33/14 A30 RMK A01 T03260138  RH  034%=      5-min Rain = 0
KNOR 041605Z 05005KT 33/14 A30 RMK A01 T03280138  RH  033%=      5-min Rain = 0
KNOR 041610Z 04006KT 33/14 A30 RMK A01 T03300137  RH  033%=      5-min Rain = 0
KNOR 041615Z 03005KT 33/14 A30 RMK A01 T03340138  RH  032%=      5-min Rain = 0
KNOR 041620Z 06006KT 34/14 A30 RMK A01 T03370141  RH  032%=      5-min Rain = 0
KNOR 041625Z 05007KT 33/14 A30 RMK A01 T03340141  RH  033%=      5-min Rain = 0
KNOR 041630Z 09005KT 34/14 A30 RMK A01 T03380142  RH  032%=      5-min Rain = 0
KNOR 041635Z 04005G10KT 34/14 A30 RMK A01 T03410143  RH  032%=      5-min Rain = 0
KNOR 041640Z 03006G11KT 34/15 A3001 RMK A01 T03410145  RH  032%=      5-min Rain = 0
KNOR 041645Z 03007G13KT 34/14 A3001 RMK A01 T03400142  RH  032%=      5-min Rain = 0
KNOR 041650Z 04007G12KT 34/14 A3001 RMK A01 T03420142  RH  031%=      5-min Rain = 0
KNOR 041655Z 03005G10KT 34/14 A3001 RMK A01 T03420135  RH  030%=      5-min Rain = 0
KNOR 041700Z 02005G10KT 34/14 A3001 RMK A01 T03440144  RH  031%=      5-min Rain = 0
KNOR 041705Z 04007KT 35/14 A30 RMK A01 T03470143  RH  031%=      5-min Rain = 0
KNOR 041710Z 02008KT 35/14 A30 RMK A01 T03490144  RH  031%=      5-min Rain = 0
KNOR 041715Z 06009KT 35/14 A30 RMK A01 T03480144  RH  031%=      5-min Rain = 0
KNOR 041720Z 08007KT 35/14 A30 RMK A01 T03480144  RH  031%=      5-min Rain = 0
KNOR 041725Z 08005KT 35/14 A30 RMK A01 T03520143  RH  030%=      5-min Rain = 0
KNOR 041730Z 07007KT 36/14 A30 RMK A01 T03560144  RH  029%=      5-min Rain = 0
KNOR 041735Z 10005KT 35/14 A30 RMK A01 T03530140  RH  029%=      5-min Rain = 0
KNOR 041740Z 03006KT 36/14 A30 RMK A01 T03560140  RH  029%=      5-min Rain = 0
KNOR 041745Z 03006KT 36/14 A30 RMK A01 T03580138  RH  028%=      5-min Rain = 0
KNOR 041750Z 05005G12KT 36/14 A30 RMK A01 T03610138  RH  028%=      5-min Rain = 0
KNOR 041755Z 00005KT 36/13 A2999 RMK A01 T03580134  RH  027%=      5-min Rain = 0
KNOR 041800Z 10005KT 36/14 A2999 RMK A01 T03580135  RH  027%=      5-min Rain = 0
KNOR 041805Z 12005KT 36/13 A2999 RMK A01 T03590134  RH  027%=      5-min Rain = 0
KNOR 041810Z 11004KT 36/13 A2999 RMK A01 T03600132  RH  026%=      5-min Rain = 0
KNOR 041815Z 05003G8KT 36/13 A2999 RMK A01 T03620132  RH  026%=      5-min Rain = 0
KNOR 041820Z 05004KT 37/13 A2999 RMK A01 T03660131  RH  025%=      5-min Rain = 0
KNOR 041825Z 10003G8KT 36/13 A2998 RMK A01 T03630127  RH  025%=      5-min Rain = 0
KNOR 041830Z 09005KT 36/13 A2998 RMK A01 T03640131  RH  026%=      5-min Rain = 0
KNOR 041835Z 12006KT 37/13 A2998 RMK A01 T03650128  RH  025%=      5-min Rain = 0
KNOR 041840Z 10007G12KT 36/13 A2998 RMK A01 T03640128  RH  025%=      5-min Rain = 0
KNOR 041845Z 14005KT 37/13 A2998 RMK A01 T03670126  RH  025%=      5-min Rain = 0
KNOR 041850Z 19004KT 37/12 A2998 RMK A01 T03670124  RH  024%=      5-min Rain = 0
KNOR 041855Z 20005KT 37/12 A2998 RMK A01 T03660122  RH  024%=      5-min Rain = 0
KNOR 041900Z 16006G11KT 37/13 A2997 RMK A01 T03720126  RH  024%=      5-min Rain = 0
KNOR 041905Z 18006KT 38/12 A2997 RMK A01 T03750123  RH  023%=      5-min Rain = 0
KNOR 041910Z 19003KT 38/12 A2997 RMK A01 T03750122  RH  023%=      5-min Rain = 0
KNOR 041915Z 20005KT 38/12 A2996 RMK A01 T03800123  RH  022%=      5-min Rain = 0
KNOR 041920Z 13007KT 38/12 A2996 RMK A01 T03840124  RH  022%=      5-min Rain = 0
KNOR 041925Z 12005KT 38/12 A2996 RMK A01 T03770119  RH  022%=      5-min Rain = 0
KNOR 041930Z 04002KT 38/12 A2996 RMK A01 T03800123  RH  023%=      5-min Rain = 0
KNOR 041935Z 06004G10KT 38/12 A2996 RMK A01 T03760122  RH  023%=      5-min Rain = 0
KNOR 041940Z 08007G12KT 37/13 A2995 RMK A01 T03690126  RH  024%=      5-min Rain = 0
KNOR 041945Z 08005G10KT 37/13 A2995 RMK A01 T03730126  RH  024%=      5-min Rain = 0
KNOR 041950Z 08008G14KT 38/13 A2995 RMK A01 T03770130  RH  024%=      5-min Rain = 0
KNOR 041955Z 08008KT 38/13 A2995 RMK A01 T03800130  RH  024%=      5-min Rain = 0
KNOR 042000Z 08006G11KT 37/13 A2995 RMK A01 T03720128  RH  024%=      5-min Rain = 0
KNOR 042005Z 09003KT 38/13 A2995 RMK A01 T03780129  RH  024%=      5-min Rain = 0
KNOR 042010Z 06005G11KT 38/13 A2994 RMK A01 T03800128  RH  023%=      5-min Rain = 0
KNOR 042015Z 09008G14KT 38/13 A2993 RMK A01 T03800129  RH  023%=      5-min Rain = 0
KNOR 042020Z 09007G12KT 38/13 A2993 RMK A01 T03780126  RH  023%=      5-min Rain = 0
KNOR 042025Z 09007G13KT 38/13 A2992 RMK A01 T03800128  RH  023%=      5-min Rain = 0
KNOR 042030Z 10008G13KT 38/13 A2992 RMK A01 T03810128  RH  023%=      5-min Rain = 0
KNOR 042035Z 07008G17KT 38/13 A2992 RMK A01 T03810127  RH  023%=      5-min Rain = 0
KNOR 042040Z 08006G11KT 37/13 A2992 RMK A01 T03740125  RH  024%=      5-min Rain = 0
KNOR 042045Z 09005KT 37/13 A2992 RMK A01 T03680126  RH  024%=      5-min Rain = 0
KNOR 042050Z 14005G10KT 37/12 A2992 RMK A01 T03720121  RH  023%=      5-min Rain = 0
KNOR 042055Z 14003KT 37/12 A2992 RMK A01 T03660121  RH  024%=      5-min Rain = 0
KNOR 042100Z 13006G11KT 37/12 A2992 RMK A01 T03660119  RH  024%=      5-min Rain = 0
KNOR 042105Z 15003KT 36/12 A2991 RMK A01 T03640120  RH  024%=      5-min Rain = 0
KNOR 042110Z 16002KT 36/12 A2991 RMK A01 T03640118  RH  024%=      5-min Rain = 0
KNOR 042115Z 15003G9KT 37/12 A2992 RMK A01 T03660123  RH  024%=      5-min Rain = 0
KNOR 042120Z 13006KT 36/12 A2992 RMK A01 T03620122  RH  025%=      5-min Rain = 0
KNOR 042125Z 12004KT 36/12 A2992 RMK A01 T03600121  RH  025%=      5-min Rain = 0
KNOR 042130Z 25010G20KT 35/13 A2994 RMK A01 T03450131  RH  029%=      5-min Rain = 0
KNOR 042135Z 23013G19KT 31/15 A2994 RMK A01 T03060148  RH  040%=      5-min Rain = 0
KNOR 042140Z 24017G23KT 31/15 A2993 RMK A01 T03060147  RH  040%=      5-min Rain = 0
KNOR 042145Z 24016KT 31/15 A2994 RMK A01 T03060147  RH  040%=      5-min Rain = 0
KNOR 042150Z 24013G21KT 30/15 A2994 RMK A01 T03020148  RH  041%=      5-min Rain = 0
KNOR 042155Z 24014G23KT 30/15 A2994 RMK A01 T03020148  RH  041%=      5-min Rain = 0
KNOR 042200Z 23015G20KT 29/16 A2994 RMK A01 T02930158  RH  046%=      5-min Rain = 0
KNOR 042205Z 22015G22KT 28/16 A2993 RMK A01 T02840164  RH  050%=      5-min Rain = 0
KNOR 042210Z 23015G24KT 29/16 A2993 RMK A01 T02890158  RH  047%=      5-min Rain = 0
KNOR 042215Z 22011KT 29/16 A2993 RMK A01 T02900159  RH  047%=      5-min Rain = 0
KNOR 042220Z 21011KT 29/16 A2993 RMK A01 T02930155  RH  045%=      5-min Rain = 0
KNOR 042225Z 19011KT 30/15 A2993 RMK A01 T02950154  RH  044%=      5-min Rain = 0
KNOR 042230Z 19010G15KT 29/16 A2993 RMK A01 T02940155  RH  045%=      5-min Rain = 0
KNOR 042235Z 18012KT 30/15 A2993 RMK A01 T02980148  RH  042%=      5-min Rain = 0
KNOR 042240Z 18011KT 29/15 A2993 RMK A01 T02940154  RH  045%=      5-min Rain = 0
KNOR 042245Z 17009KT 29/17 A2993 RMK A01 T02880165  RH  050%=      5-min Rain = 0
KNOR 042250Z 15007KT 28/17 A2994 RMK A01 T02840166  RH  051%=      5-min Rain = 0
KNOR 042255Z 04010G18KT 28/17 A2995 RMK A01 T02840167  RH  052%=      5-min Rain = 0
KNOR 042300Z 04012G19KT 28/17 A2995 RMK A01 T02810171  RH  054%=      5-min Rain = 0
KNOR 042305Z 02012G19KT 27/19 A2995 RMK A01 T02660188  RH  066%=      5-min Rain = 0
KNOR 042310Z 03015G21KT 25/20 A2995 RMK A01 T02500197  RH  076%=      5-min Rain = 0
KNOR 042315Z 05014G22KT 25/20 A2995 RMK A01 T02460195  RH  078%=      5-min Rain = 0
KNOR 042320Z 05010G15KT 24/20 A2995 RMK A01 T02440197  RH  079%=      5-min Rain = 0
KNOR 042325Z 05010G17KT 25/20 A2995 RMK A01 T02470195  RH  077%=      5-min Rain = 0
KNOR 042330Z 05012G18KT 25/19 A2995 RMK A01 T02470194  RH  077%=      5-min Rain = 0
KNOR 042335Z 06013KT 25/20 A2995 RMK A01 T02460195  RH  077%=      5-min Rain = 0
KNOR 042340Z 06012G17KT 25/20 A2995 RMK A01 T02460197  RH  078%=      5-min Rain = 0
KNOR 042345Z 06012KT 25/20 A2994 RMK A01 T02460197  RH  078%=      5-min Rain = 0
KNOR 042350Z 07013G19KT 25/20 A2994 RMK A01 T02450198  RH  079%=      5-min Rain = 0
KNOR 042355Z 08011G17KT 24/20 A2993 RMK A01 T02440195  RH  079%=      5-min Rain = 0
KNOR 050000Z 07010G15KT 25/20 A2993 RMK A01 T02450195  RH  078%=      5-min Rain = 0
KNOR 050005Z 07012G17KT 25/19 A2994 RMK A01 T02450193  RH  077%=      5-min Rain = 0
KNOR 050010Z 08011G17KT 24/19 A2994 RMK A01 T02440192  RH  077%=      5-min Rain = 0
KNOR 050015Z 09011G16KT 24/19 A2994 RMK A01 T02440191  RH  076%=      5-min Rain = 0
KNOR 050020Z 09009G14KT 25/19 A2993 RMK A01 T02450191  RH  076%=      5-min Rain = 0
KNOR 050025Z 10009KT 25/19 A2993 RMK A01 T02460192  RH  076%=      5-min Rain = 0
KNOR 050030Z 10009G14KT 25/19 A2993 RMK A01 T02470192  RH  076%=      5-min Rain = 0
KNOR 050035Z 09007KT 25/19 A2993 RMK A01 T02480192  RH  075%=      5-min Rain = 0
KNOR 050040Z 09007G12KT 25/19 A2993 RMK A01 T02490192  RH  075%=      5-min Rain = 0
KNOR 050045Z 10007KT 25/19 A2993 RMK A01 T02510192  RH  074%=      5-min Rain = 0
KNOR 050050Z 10007KT 25/19 A2993 RMK A01 T02540191  RH  072%=      5-min Rain = 0
KNOR 050055Z 10007G12KT 26/19 A2993 RMK A01 T02570191  RH  071%=      5-min Rain = 0
KNOR 050100Z 11008KT 26/19 A2993 RMK A01 T02610190  RH  069%=      5-min Rain = 0
KNOR 050105Z 11007KT 26/19 A2994 RMK A01 T02620189  RH  068%=      5-min Rain = 0
KNOR 050110Z 11008KT 26/19 A2994 RMK A01 T02620188  RH  067%=      5-min Rain = 0
KNOR 050115Z 10009KT 26/19 A2994 RMK A01 T02620187  RH  067%=      5-min Rain = 0
KNOR 050120Z 11008G14KT 26/19 A2994 RMK A01 T02620187  RH  067%=      5-min Rain = 0
KNOR 050125Z 10007KT 26/19 A2995 RMK A01 T02620189  RH  068%=      5-min Rain = 0
KNOR 050130Z 10007G13KT 26/19 A2995 RMK A01 T02600190  RH  069%=      5-min Rain = 0
KNOR 050135Z 09006G12KT 26/19 A2995 RMK A01 T02590191  RH  070%=      5-min Rain = 0
KNOR 050140Z 10006G12KT 26/19 A2995 RMK A01 T02570192  RH  071%=      5-min Rain = 0
KNOR 050145Z 10007KT 26/19 A2995 RMK A01 T02550192  RH  072%=      5-min Rain = 0
KNOR 050150Z 10008KT 25/19 A2995 RMK A01 T02540191  RH  072%=      5-min Rain = 0
KNOR 050155Z 09007G12KT 25/19 A2995 RMK A01 T02540191  RH  072%=      5-min Rain = 0
KNOR 050200Z 09007KT 25/19 A2995 RMK A01 T02530191  RH  073%=      5-min Rain = 0
KNOR 050205Z 09006KT 25/19 A2995 RMK A01 T02520190  RH  072%=      5-min Rain = 0
KNOR 050210Z 10006KT 25/19 A2995 RMK A01 T02520188  RH  072%=      5-min Rain = 0
KNOR 050215Z 10004KT 25/19 A2995 RMK A01 T02510187  RH  072%=      5-min Rain = 0
KNOR 050220Z 10005KT 25/19 A2995 RMK A01 T02490186  RH  072%=      5-min Rain = 0
KNOR 050225Z 10006KT 25/19 A2994 RMK A01 T02470185  RH  072%=      5-min Rain = 0
KNOR 050230Z 10005KT 25/19 A2994 RMK A01 T02460185  RH  073%=      5-min Rain = 0
KNOR 050235Z 09003KT 25/19 A2994 RMK A01 T02450186  RH  074%=      5-min Rain = 0
KNOR 050240Z 09003KT 24/19 A2994 RMK A01 T02430186  RH  074%=      5-min Rain = 0
KNOR 050245Z 09003KT 24/19 A2994 RMK A01 T02420186  RH  075%=      5-min Rain = 0
KNOR 050250Z 08003KT 24/19 A2994 RMK A01 T02410187  RH  076%=      5-min Rain = 0
KNOR 050255Z 08002KT 24/19 A2994 RMK A01 T02390187  RH  076%=      5-min Rain = 0
KNOR 050300Z 06002KT 24/19 A2994 RMK A01 T02390187  RH  077%=      5-min Rain = 0
KNOR 050305Z 06001KT 24/19 A2994 RMK A01 T02370186  RH  077%=      5-min Rain = 0
KNOR 050310Z 10000KT 24/19 A2994 RMK A01 T02350186  RH  078%=      5-min Rain = 0
KNOR 050315Z 00000KT 23/19 A2994 RMK A01 T02340186  RH  079%=      5-min Rain = 0
KNOR 050320Z 27000KT 23/19 A2994 RMK A01 T02330186  RH  079%=      5-min Rain = 0
KNOR 050325Z 27000KT 23/19 A2994 RMK A01 T02320186  RH  080%=      5-min Rain = 0
KNOR 050330Z 21000KT 23/19 A2994 RMK A01 T02310186  RH  080%=      5-min Rain = 0
KNOR 050335Z 34000KT 23/19 A2994 RMK A01 T02300186  RH  080%=      5-min Rain = 0
KNOR 050340Z 22000KT 23/19 A2994 RMK A01 T02290186  RH  081%=      5-min Rain = 0
KNOR 050345Z 22000KT 23/19 A2994 RMK A01 T02290187  RH  081%=      5-min Rain = 0
KNOR 050350Z 36001KT 23/19 A2994 RMK A01 T02300187  RH  081%=      5-min Rain = 0
KNOR 050355Z 35001KT 23/19 A2994 RMK A01 T02290186  RH  081%=      5-min Rain = 0
KNOR 050400Z 33001KT 23/19 A2995 RMK A01 T02290186  RH  081%=      5-min Rain = 0
KNOR 050405Z 33002KT 23/19 A2995 RMK A01 T02280187  RH  082%=      5-min Rain = 0
KNOR 050410Z 35003KT 23/19 A2995 RMK A01 T02310187  RH  081%=      5-min Rain = 0
KNOR 050415Z 35004KT 23/19 A2994 RMK A01 T02290185  RH  081%=      5-min Rain = 0
KNOR 050420Z 35003KT 23/19 A2995 RMK A01 T02280185  RH  081%=      5-min Rain = 0
KNOR 050425Z 34005KT 23/19 A2995 RMK A01 T02260185  RH  082%=      5-min Rain = 0
KNOR 050430Z 33005KT 22/19 A2995 RMK A01 T02240186  RH  084%=      5-min Rain = 0
KNOR 050435Z 32005KT 22/19 A2995 RMK A01 T02220186  RH  084%=      5-min Rain = 0
KNOR 050440Z 32005KT 22/19 A2995 RMK A01 T02210186  RH  085%=      5-min Rain = 0
KNOR 050445Z 33006KT 22/19 A2995 RMK A01 T02200186  RH  085%=      5-min Rain = 0
KNOR 050450Z 34006KT 22/19 A2995 RMK A01 T02210186  RH  085%=      5-min Rain = 0
KNOR 050455Z 34005KT 22/19 A2996 RMK A01 T02210186  RH  085%=      5-min Rain = 0

Page generated in 0.015 seconds.